sensor_id;sensor_type;location;lat;lon;timestamp;pressure;altitude;pressure_sealevel;temperature;humidity
65173;BME280;69059;52.218;5.172;2023-10-09T00:02:46;101224.13;;;14.66;100.00
65173;BME280;69059;52.218;5.172;2023-10-09T00:05:16;101233.78;;;14.59;100.00
65173;BME280;69059;52.218;5.172;2023-10-09T00:07:50;101237.09;;;14.68;100.00
65173;BME280;69059;52.218;5.172;2023-10-09T00:10:22;101254.25;;;14.70;100.00
65173;BME280;69059;52.218;5.172;2023-10-09T00:12:51;101285.41;;;14.74;100.00
65173;BME280;69059;52.218;5.172;2023-10-09T00:15:19;101314.13;;;14.75;100.00
65173;BME280;69059;52.218;5.172;2023-10-09T00:17:47;101340.97;;;14.70;100.00
65173;BME280;69059;52.218;5.172;2023-10-09T00:20:17;101363.44;;;14.73;100.00
65173;BME280;69059;52.218;5.172;2023-10-09T00:22:48;101380.22;;;14.72;100.00
65173;BME280;69059;52.218;5.172;2023-10-09T00:25:15;101399.09;;;14.82;100.00
65173;BME280;69059;52.218;5.172;2023-10-09T00:27:49;101428.22;;;14.81;100.00
65173;BME280;69059;52.218;5.172;2023-10-09T00:30:18;101445.63;;;14.82;100.00
65173;BME280;69059;52.218;5.172;2023-10-09T00:32:48;101456.53;;;14.85;100.00
65173;BME280;69059;52.218;5.172;2023-10-09T00:35:27;101466.72;;;14.95;100.00
65173;BME280;69059;52.218;5.172;2023-10-09T00:38:12;101465.72;;;14.96;100.00
65173;BME280;69059;52.218;5.172;2023-10-09T00:40:50;101485.38;;;15.00;100.00
65173;BME280;69059;52.218;5.172;2023-10-09T00:43:29;101475.81;;;14.92;100.00
65173;BME280;69059;52.218;5.172;2023-10-09T00:46:02;101475.66;;;15.00;100.00
65173;BME280;69059;52.218;5.172;2023-10-09T00:48:30;101471.78;;;14.96;100.00
65173;BME280;69059;52.218;5.172;2023-10-09T00:51:05;101423.78;;;14.81;100.00
65173;BME280;69059;52.218;5.172;2023-10-09T00:53:43;101446.75;;;15.00;100.00
65173;BME280;69059;52.218;5.172;2023-10-09T00:56:11;101430.34;;;14.98;100.00
65173;BME280;69059;52.218;5.172;2023-10-09T00:58:56;101410.09;;;14.92;100.00
65173;BME280;69059;52.218;5.172;2023-10-09T01:01:26;101378.56;;;14.99;100.00
65173;BME280;69059;52.218;5.172;2023-10-09T01:04:01;101354.13;;;15.05;100.00
65173;BME280;69059;52.218;5.172;2023-10-09T01:06:40;101336.94;;;15.09;100.00
65173;BME280;69059;52.218;5.172;2023-10-09T01:09:11;101323.66;;;15.24;100.00
65173;BME280;69059;52.218;5.172;2023-10-09T01:11:40;101323.28;;;15.33;100.00
65173;BME280;69059;52.218;5.172;2023-10-09T01:14:30;101327.72;;;15.26;100.00
65173;BME280;69059;52.218;5.172;2023-10-09T01:17:02;101337.06;;;15.29;100.00
65173;BME280;69059;52.218;5.172;2023-10-09T01:19:34;101335.38;;;15.21;100.00
65173;BME280;69059;52.218;5.172;2023-10-09T01:22:03;101324.56;;;15.44;100.00
65173;BME280;69059;52.218;5.172;2023-10-09T01:24:40;101334.66;;;15.40;100.00
65173;BME280;69059;52.218;5.172;2023-10-09T01:27:08;101349.44;;;15.41;100.00
65173;BME280;69059;52.218;5.172;2023-10-09T01:29:42;101335.66;;;15.46;100.00
65173;BME280;69059;52.218;5.172;2023-10-09T01:32:10;101337.09;;;15.49;100.00
65173;BME280;69059;52.218;5.172;2023-10-09T01:34:43;101342.16;;;15.50;100.00
65173;BME280;69059;52.218;5.172;2023-10-09T01:37:13;101349.25;;;15.43;100.00
65173;BME280;69059;52.218;5.172;2023-10-09T01:39:47;101346.81;;;15.48;100.00
65173;BME280;69059;52.218;5.172;2023-10-09T01:42:17;101353.34;;;15.59;100.00
65173;BME280;69059;52.218;5.172;2023-10-09T01:44:54;101348.81;;;15.46;100.00
65173;BME280;69059;52.218;5.172;2023-10-09T01:47:24;101336.28;;;15.48;100.00
65173;BME280;69059;52.218;5.172;2023-10-09T01:49:58;101334.66;;;15.47;100.00
65173;BME280;69059;52.218;5.172;2023-10-09T01:52:31;101326.78;;;15.47;100.00
65173;BME280;69059;52.218;5.172;2023-10-09T01:55:02;101310.78;;;15.49;100.00
65173;BME280;69059;52.218;5.172;2023-10-09T01:57:51;101302.75;;;15.57;100.00
65173;BME280;69059;52.218;5.172;2023-10-09T02:00:18;101291.16;;;15.51;100.00
65173;BME280;69059;52.218;5.172;2023-10-09T02:02:50;101275.63;;;15.56;100.00
65173;BME280;69059;52.218;5.172;2023-10-09T02:05:18;101284.13;;;15.58;100.00
65173;BME280;69059;52.218;5.172;2023-10-09T02:07:52;101279.28;;;15.55;100.00
65173;BME280;69059;52.218;5.172;2023-10-09T02:10:21;101269.13;;;15.59;100.00
65173;BME280;69059;52.218;5.172;2023-10-09T02:12:52;101262.28;;;15.64;100.00
65173;BME280;69059;52.218;5.172;2023-10-09T02:15:25;101269.34;;;15.70;100.00
65173;BME280;69059;52.218;5.172;2023-10-09T02:18:21;101228.88;;;15.65;100.00
65173;BME280;69059;52.218;5.172;2023-10-09T02:21:19;101223.81;;;15.63;100.00
65173;BME280;69059;52.218;5.172;2023-10-09T02:24:00;101225.84;;;15.68;100.00
65173;BME280;69059;52.218;5.172;2023-10-09T02:26:31;101231.69;;;15.63;100.00
65173;BME280;69059;52.218;5.172;2023-10-09T02:29:20;101233.31;;;15.71;100.00
65173;BME280;69059;52.218;5.172;2023-10-09T02:31:50;101213.28;;;15.70;100.00
65173;BME280;69059;52.218;5.172;2023-10-09T02:34:20;101213.88;;;15.65;100.00
65173;BME280;69059;52.218;5.172;2023-10-09T02:36:51;101202.75;;;15.76;100.00
65173;BME280;69059;52.218;5.172;2023-10-09T02:39:24;101199.53;;;15.81;100.00
65173;BME280;69059;52.218;5.172;2023-10-09T02:41:53;101199.09;;;15.77;100.00
65173;BME280;69059;52.218;5.172;2023-10-09T02:44:41;101188.97;;;15.74;100.00
65173;BME280;69059;52.218;5.172;2023-10-09T02:47:12;101182.91;;;15.87;100.00
65173;BME280;69059;52.218;5.172;2023-10-09T02:49:48;101173.38;;;15.93;100.00
65173;BME280;69059;52.218;5.172;2023-10-09T02:52:17;101180.66;;;15.91;100.00
65173;BME280;69059;52.218;5.172;2023-10-09T02:54:51;101168.31;;;15.85;100.00
65173;BME280;69059;52.218;5.172;2023-10-09T02:57:26;101159.81;;;15.89;100.00
65173;BME280;69059;52.218;5.172;2023-10-09T03:00:03;101148.66;;;15.87;100.00
65173;BME280;69059;52.218;5.172;2023-10-09T03:02:35;101140.78;;;15.94;100.00
65173;BME280;69059;52.218;5.172;2023-10-09T03:05:08;101138.09;;;16.00;100.00
65173;BME280;69059;52.218;5.172;2023-10-09T03:07:38;101146.22;;;15.99;100.00
65173;BME280;69059;52.218;5.172;2023-10-09T03:10:06;101151.28;;;16.07;100.00
65173;BME280;69059;52.218;5.172;2023-10-09T03:12:36;101157.72;;;16.11;100.00
65173;BME280;69059;52.218;5.172;2023-10-09T03:15:06;101169.28;;;16.17;100.00
65173;BME280;69059;52.218;5.172;2023-10-09T03:17:35;101184.69;;;16.20;100.00
65173;BME280;69059;52.218;5.172;2023-10-09T03:20:03;101199.28;;;16.16;100.00
65173;BME280;69059;52.218;5.172;2023-10-09T03:22:40;101223.97;;;16.28;100.00
65173;BME280;69059;52.218;5.172;2023-10-09T03:25:09;101239.97;;;16.26;100.00
65173;BME280;69059;52.218;5.172;2023-10-09T03:27:41;101256.38;;;16.28;100.00
65173;BME280;69059;52.218;5.172;2023-10-09T03:30:12;101265.50;;;16.26;100.00
65173;BME280;69059;52.218;5.172;2023-10-09T03:32:43;101279.69;;;16.31;100.00
65173;BME280;69059;52.218;5.172;2023-10-09T03:35:17;101309.28;;;16.40;100.00
65173;BME280;69059;52.218;5.172;2023-10-09T03:37:55;101340.47;;;16.23;100.00
65173;BME280;69059;52.218;5.172;2023-10-09T03:40:26;101364.00;;;16.25;100.00
65173;BME280;69059;52.218;5.172;2023-10-09T03:42:55;101360.38;;;16.19;100.00
65173;BME280;69059;52.218;5.172;2023-10-09T03:45:22;101358.53;;;16.33;100.00
65173;BME280;69059;52.218;5.172;2023-10-09T03:47:55;101350.41;;;16.21;100.00
65173;BME280;69059;52.218;5.172;2023-10-09T03:50:29;101336.47;;;16.21;100.00
65173;BME280;69059;52.218;5.172;2023-10-09T03:53:05;101321.03;;;16.18;100.00
65173;BME280;69059;52.218;5.172;2023-10-09T03:55:34;101320.84;;;16.19;100.00
65173;BME280;69059;52.218;5.172;2023-10-09T03:58:05;101313.97;;;16.18;100.00
65173;BME280;69059;52.218;5.172;2023-10-09T04:00:32;101305.25;;;16.18;100.00
65173;BME280;69059;52.218;5.172;2023-10-09T04:03:07;101284.16;;;16.24;100.00
65173;BME280;69059;52.218;5.172;2023-10-09T04:05:38;101294.25;;;16.34;100.00
65173;BME280;69059;52.218;5.172;2023-10-09T04:08:11;101308.06;;;16.23;100.00
65173;BME280;69059;52.218;5.172;2023-10-09T04:10:46;101303.19;;;16.26;100.00
65173;BME280;69059;52.218;5.172;2023-10-09T04:13:24;101307.84;;;16.24;100.00
65173;BME280;69059;52.218;5.172;2023-10-09T04:16:00;101308.06;;;16.29;100.00
65173;BME280;69059;52.218;5.172;2023-10-09T04:18:36;101314.94;;;16.24;100.00
65173;BME280;69059;52.218;5.172;2023-10-09T04:21:05;101296.91;;;16.34;100.00
65173;BME280;69059;52.218;5.172;2023-10-09T04:24:02;101304.19;;;16.38;100.00
65173;BME280;69059;52.218;5.172;2023-10-09T04:26:49;101309.69;;;16.24;100.00
65173;BME280;69059;52.218;5.172;2023-10-09T04:29:22;101306.03;;;16.31;100.00
65173;BME280;69059;52.218;5.172;2023-10-09T04:31:54;101299.56;;;16.21;100.00
65173;BME280;69059;52.218;5.172;2023-10-09T04:34:22;101291.03;;;16.25;100.00
65173;BME280;69059;52.218;5.172;2023-10-09T04:36:55;101278.69;;;16.26;100.00
65173;BME280;69059;52.218;5.172;2023-10-09T04:39:28;101285.78;;;16.32;100.00
65173;BME280;69059;52.218;5.172;2023-10-09T04:42:13;101281.13;;;16.27;100.00
65173;BME280;69059;52.218;5.172;2023-10-09T04:44:52;101270.38;;;16.16;100.00
65173;BME280;69059;52.218;5.172;2023-10-09T04:47:38;101244.84;;;16.09;100.00
65173;BME280;69059;52.218;5.172;2023-10-09T04:50:16;101230.69;;;16.04;100.00
65173;BME280;69059;52.218;5.172;2023-10-09T04:52:57;101205.13;;;16.11;100.00
65173;BME280;69059;52.218;5.172;2023-10-09T04:55:46;101199.66;;;16.12;100.00
65173;BME280;69059;52.218;5.172;2023-10-09T04:58:21;101201.91;;;16.16;100.00
65173;BME280;69059;52.218;5.172;2023-10-09T05:00:52;101177.44;;;15.95;100.00
65173;BME280;69059;52.218;5.172;2023-10-09T05:03:31;101202.50;;;16.18;100.00
65173;BME280;69059;52.218;5.172;2023-10-09T05:06:11;101214.84;;;16.30;100.00
65173;BME280;69059;52.218;5.172;2023-10-09T05:08:56;101220.72;;;16.26;100.00
65173;BME280;69059;52.218;5.172;2023-10-09T05:11:35;101238.56;;;16.24;100.00
65173;BME280;69059;52.218;5.172;2023-10-09T05:14:36;101240.97;;;16.38;100.00
65173;BME280;69059;52.218;5.172;2023-10-09T05:17:06;101240.78;;;16.27;100.00
65173;BME280;69059;52.218;5.172;2023-10-09T05:19:33;101256.78;;;16.38;100.00
65173;BME280;69059;52.218;5.172;2023-10-09T05:22:09;101268.72;;;16.34;100.00
65173;BME280;69059;52.218;5.172;2023-10-09T05:24:43;101257.19;;;16.35;100.00
65173;BME280;69059;52.218;5.172;2023-10-09T05:27:15;101276.06;;;16.32;100.00
65173;BME280;69059;52.218;5.172;2023-10-09T05:29:45;101267.34;;;16.32;100.00
65173;BME280;69059;52.218;5.172;2023-10-09T05:32:39;101264.91;;;16.30;100.00
65173;BME280;69059;52.218;5.172;2023-10-09T05:35:15;101255.78;;;16.33;100.00
65173;BME280;69059;52.218;5.172;2023-10-09T05:37:42;101245.63;;;16.43;100.00
65173;BME280;69059;52.218;5.172;2023-10-09T05:40:14;101237.50;;;16.38;100.00
65173;BME280;69059;52.218;5.172;2023-10-09T05:42:58;101246.41;;;16.50;100.00
65173;BME280;69059;52.218;5.172;2023-10-09T05:45:29;101254.13;;;16.45;100.00
65173;BME280;69059;52.218;5.172;2023-10-09T05:48:15;101245.78;;;16.48;100.00
65173;BME280;69059;52.218;5.172;2023-10-09T05:51:02;101235.41;;;16.60;100.00
65173;BME280;69059;52.218;5.172;2023-10-09T05:54:07;101228.09;;;16.75;100.00
65173;BME280;69059;52.218;5.172;2023-10-09T05:57:06;101244.78;;;16.62;100.00
65173;BME280;69059;52.218;5.172;2023-10-09T05:59:52;101235.44;;;16.66;100.00
65173;BME280;69059;52.218;5.172;2023-10-09T06:02:39;101255.69;;;16.72;100.00
65173;BME280;69059;52.218;5.172;2023-10-09T06:05:28;101258.56;;;16.64;100.00
65173;BME280;69059;52.218;5.172;2023-10-09T06:08:08;101263.56;;;16.86;100.00
65173;BME280;69059;52.218;5.172;2023-10-09T06:10:39;101300.91;;;16.82;100.00
65173;BME280;69059;52.218;5.172;2023-10-09T06:13:08;101299.09;;;16.76;100.00
65173;BME280;69059;52.218;5.172;2023-10-09T06:15:58;101302.28;;;16.85;100.00
65173;BME280;69059;52.218;5.172;2023-10-09T06:18:46;101303.09;;;16.92;100.00
65173;BME280;69059;52.218;5.172;2023-10-09T06:21:34;101326.41;;;17.02;100.00
65173;BME280;69059;52.218;5.172;2023-10-09T06:24:28;101354.66;;;16.81;100.00
65173;BME280;69059;52.218;5.172;2023-10-09T06:27:08;101355.44;;;16.89;100.00
65173;BME280;69059;52.218;5.172;2023-10-09T06:29:50;101360.72;;;16.89;100.00
65173;BME280;69059;52.218;5.172;2023-10-09T06:32:40;101391.97;;;16.78;100.00
65173;BME280;69059;52.218;5.172;2023-10-09T06:35:17;101395.66;;;16.64;100.00
65173;BME280;69059;52.218;5.172;2023-10-09T06:37:48;101373.94;;;16.69;100.00
65173;BME280;69059;52.218;5.172;2023-10-09T06:40:34;101349.81;;;16.65;100.00
65173;BME280;69059;52.218;5.172;2023-10-09T06:43:20;101335.63;;;16.66;100.00
65173;BME280;69059;52.218;5.172;2023-10-09T06:45:54;101313.13;;;16.64;100.00
65173;BME280;69059;52.218;5.172;2023-10-09T06:48:26;101279.84;;;16.69;100.00
65173;BME280;69059;52.218;5.172;2023-10-09T06:51:11;101250.66;;;16.71;100.00
65173;BME280;69059;52.218;5.172;2023-10-09T06:53:42;101233.75;;;16.85;100.00
65173;BME280;69059;52.218;5.172;2023-10-09T06:56:32;101243.66;;;16.96;100.00
65173;BME280;69059;52.218;5.172;2023-10-09T06:59:14;101227.28;;;16.81;100.00
65173;BME280;69059;52.218;5.172;2023-10-09T07:01:48;101274.44;;;17.02;100.00
65173;BME280;69059;52.218;5.172;2023-10-09T07:04:39;101291.53;;;16.93;100.00
65173;BME280;69059;52.218;5.172;2023-10-09T07:07:15;101306.75;;;16.91;100.00
65173;BME280;69059;52.218;5.172;2023-10-09T07:09:47;101325.41;;;16.90;100.00
65173;BME280;69059;52.218;5.172;2023-10-09T07:12:29;101313.84;;;16.91;100.00
65173;BME280;69059;52.218;5.172;2023-10-09T07:14:59;101294.78;;;16.89;100.00
65173;BME280;69059;52.218;5.172;2023-10-09T07:17:45;101284.47;;;16.80;100.00
65173;BME280;69059;52.218;5.172;2023-10-09T07:20:14;101236.41;;;16.78;100.00
65173;BME280;69059;52.218;5.172;2023-10-09T07:23:03;101207.06;;;16.68;100.00
65173;BME280;69059;52.218;5.172;2023-10-09T07:25:41;101154.53;;;16.60;100.00
65173;BME280;69059;52.218;5.172;2023-10-09T07:28:21;101112.34;;;16.67;100.00
65173;BME280;69059;52.218;5.172;2023-10-09T07:31:16;101080.59;;;16.87;100.00
65173;BME280;69059;52.218;5.172;2023-10-09T07:33:51;101047.09;;;16.94;100.00
65173;BME280;69059;52.218;5.172;2023-10-09T07:36:25;101106.88;;;17.25;100.00
65173;BME280;69059;52.218;5.172;2023-10-09T07:39:04;101145.50;;;17.19;100.00
65173;BME280;69059;52.218;5.172;2023-10-09T07:41:42;101204.91;;;17.28;100.00
65173;BME280;69059;52.218;5.172;2023-10-09T07:44:23;101239.13;;;17.41;100.00
65173;BME280;69059;52.218;5.172;2023-10-09T07:47:03;101267.91;;;17.49;100.00
65173;BME280;69059;52.218;5.172;2023-10-09T07:49:49;101302.56;;;17.66;100.00
65173;BME280;69059;52.218;5.172;2023-10-09T07:52:22;101331.13;;;17.76;100.00
65173;BME280;69059;52.218;5.172;2023-10-09T07:54:50;101364.31;;;17.59;100.00
65173;BME280;69059;52.218;5.172;2023-10-09T07:57:20;101384.91;;;17.43;100.00
65173;BME280;69059;52.218;5.172;2023-10-09T07:59:52;101378.34;;;17.52;100.00
65173;BME280;69059;52.218;5.172;2023-10-09T08:02:28;101410.63;;;17.54;100.00
65173;BME280;69059;52.218;5.172;2023-10-09T08:04:59;101417.34;;;17.57;100.00
65173;BME280;69059;52.218;5.172;2023-10-09T08:07:34;101432.78;;;17.53;100.00
65173;BME280;69059;52.218;5.172;2023-10-09T08:10:21;101437.25;;;17.53;100.00
65173;BME280;69059;52.218;5.172;2023-10-09T08:13:07;101429.28;;;17.66;100.00
65173;BME280;69059;52.218;5.172;2023-10-09T08:15:55;101444.28;;;17.79;100.00
65173;BME280;69059;52.218;5.172;2023-10-09T08:18:23;101454.47;;;17.69;100.00
65173;BME280;69059;52.218;5.172;2023-10-09T08:20:56;101471.13;;;17.63;100.00
65173;BME280;69059;52.218;5.172;2023-10-09T08:23:42;101469.72;;;17.60;100.00
65173;BME280;69059;52.218;5.172;2023-10-09T08:26:16;101476.81;;;17.73;100.00
65173;BME280;69059;52.218;5.172;2023-10-09T08:28:55;101502.56;;;17.84;100.00
65173;BME280;69059;52.218;5.172;2023-10-09T08:31:42;101532.63;;;17.83;100.00
65173;BME280;69059;52.218;5.172;2023-10-09T08:34:13;101531.78;;;17.89;100.00
65173;BME280;69059;52.218;5.172;2023-10-09T08:37:10;101542.09;;;18.04;100.00
65173;BME280;69059;52.218;5.172;2023-10-09T08:39:41;101560.56;;;18.10;100.00
65173;BME280;69059;52.218;5.172;2023-10-09T08:42:11;101584.94;;;18.12;100.00
65173;BME280;69059;52.218;5.172;2023-10-09T08:44:40;101593.06;;;18.17;100.00
65173;BME280;69059;52.218;5.172;2023-10-09T08:47:10;101599.22;;;18.05;100.00
65173;BME280;69059;52.218;5.172;2023-10-09T08:49:39;101607.13;;;18.05;100.00
65173;BME280;69059;52.218;5.172;2023-10-09T08:52:08;101594.31;;;18.08;100.00
65173;BME280;69059;52.218;5.172;2023-10-09T08:54:37;101609.69;;;18.24;100.00
65173;BME280;69059;52.218;5.172;2023-10-09T08:57:06;101626.34;;;18.25;100.00
65173;BME280;69059;52.218;5.172;2023-10-09T08:59:40;101636.31;;;18.30;100.00
65173;BME280;69059;52.218;5.172;2023-10-09T09:02:12;101641.91;;;18.53;100.00
65173;BME280;69059;52.218;5.172;2023-10-09T09:04:41;101647.84;;;18.42;100.00
65173;BME280;69059;52.218;5.172;2023-10-09T09:07:25;101640.34;;;18.39;100.00
65173;BME280;69059;52.218;5.172;2023-10-09T09:09:55;101666.91;;;18.57;100.00
65173;BME280;69059;52.218;5.172;2023-10-09T09:12:28;101682.97;;;18.55;100.00
65173;BME280;69059;52.218;5.172;2023-10-09T09:15:04;101684.38;;;18.71;100.00
65173;BME280;69059;52.218;5.172;2023-10-09T09:17:35;101690.47;;;18.72;100.00
65173;BME280;69059;52.218;5.172;2023-10-09T09:20:18;101710.50;;;18.92;100.00
65173;BME280;69059;52.218;5.172;2023-10-09T09:22:52;101712.53;;;18.97;100.00
65173;BME280;69059;52.218;5.172;2023-10-09T09:25:22;101725.91;;;19.09;100.00
65173;BME280;69059;52.218;5.172;2023-10-09T09:27:53;101733.84;;;19.09;100.00
65173;BME280;69059;52.218;5.172;2023-10-09T09:30:26;101742.81;;;19.01;100.00
65173;BME280;69059;52.218;5.172;2023-10-09T09:33:02;101759.88;;;19.12;100.00
65173;BME280;69059;52.218;5.172;2023-10-09T09:35:56;101755.22;;;19.01;100.00
65173;BME280;69059;52.218;5.172;2023-10-09T09:38:25;101748.56;;;19.29;100.00
65173;BME280;69059;52.218;5.172;2023-10-09T09:40:54;101756.84;;;19.40;100.00
65173;BME280;69059;52.218;5.172;2023-10-09T09:43:25;101764.94;;;19.51;100.00
65173;BME280;69059;52.218;5.172;2023-10-09T09:45:55;101774.50;;;19.52;100.00
65173;BME280;69059;52.218;5.172;2023-10-09T09:48:27;101782.16;;;19.67;100.00
65173;BME280;69059;52.218;5.172;2023-10-09T09:50:55;101784.81;;;19.67;100.00
65173;BME280;69059;52.218;5.172;2023-10-09T09:53:23;101795.38;;;19.74;100.00
65173;BME280;69059;52.218;5.172;2023-10-09T09:55:51;101801.78;;;19.59;100.00
65173;BME280;69059;52.218;5.172;2023-10-09T09:58:24;101810.44;;;19.73;100.00
65173;BME280;69059;52.218;5.172;2023-10-09T10:01:00;101813.53;;;19.63;100.00
65173;BME280;69059;52.218;5.172;2023-10-09T10:03:34;101815.69;;;19.80;100.00
65173;BME280;69059;52.218;5.172;2023-10-09T10:06:04;101823.69;;;19.73;100.00
65173;BME280;69059;52.218;5.172;2023-10-09T10:08:36;101823.47;;;19.75;100.00
65173;BME280;69059;52.218;5.172;2023-10-09T10:11:05;101841.72;;;19.58;100.00
65173;BME280;69059;52.218;5.172;2023-10-09T10:13:57;101839.50;;;19.48;100.00
65173;BME280;69059;52.218;5.172;2023-10-09T10:16:27;101843.06;;;19.74;100.00
65173;BME280;69059;52.218;5.172;2023-10-09T10:19:02;101851.50;;;19.57;100.00
65173;BME280;69059;52.218;5.172;2023-10-09T10:21:48;101864.13;;;19.62;100.00
65173;BME280;69059;52.218;5.172;2023-10-09T10:27:19;101875.34;;;19.51;100.00
65173;BME280;69059;52.218;5.172;2023-10-09T10:35:24;101887.06;;;19.75;100.00
65173;BME280;69059;52.218;5.172;2023-10-09T10:40:48;101885.50;;;20.23;100.00
65173;BME280;69059;52.218;5.172;2023-10-09T10:43:23;101890.56;;;20.00;100.00
65173;BME280;69059;52.218;5.172;2023-10-09T10:46:03;101900.50;;;20.04;100.00
65173;BME280;69059;52.218;5.172;2023-10-09T10:48:40;101896.63;;;20.38;100.00
65173;BME280;69059;52.218;5.172;2023-10-09T10:51:14;101896.13;;;19.92;100.00
65173;BME280;69059;52.218;5.172;2023-10-09T10:53:51;101896.28;;;19.97;100.00
65173;BME280;69059;52.218;5.172;2023-10-09T10:56:24;101905.31;;;20.14;100.00
65173;BME280;69059;52.218;5.172;2023-10-09T10:59:01;101901.38;;;19.98;100.00
65173;BME280;69059;52.218;5.172;2023-10-09T11:01:39;101897.16;;;20.47;100.00
65173;BME280;69059;52.218;5.172;2023-10-09T11:04:27;101897.66;;;20.37;100.00
65173;BME280;69059;52.218;5.172;2023-10-09T11:07:10;101900.91;;;20.33;100.00
65173;BME280;69059;52.218;5.172;2023-10-09T11:09:45;101900.38;;;20.24;100.00
65173;BME280;69059;52.218;5.172;2023-10-09T11:12:43;101907.88;;;20.27;100.00
65173;BME280;69059;52.218;5.172;2023-10-09T11:15:32;101899.25;;;20.63;100.00
65173;BME280;69059;52.218;5.172;2023-10-09T11:18:11;101909.31;;;20.55;100.00
65173;BME280;69059;52.218;5.172;2023-10-09T11:20:48;101915.69;;;20.72;100.00
65173;BME280;69059;52.218;5.172;2023-10-09T11:23:26;101921.53;;;20.37;100.00
65173;BME280;69059;52.218;5.172;2023-10-09T11:26:04;101923.56;;;20.60;100.00
65173;BME280;69059;52.218;5.172;2023-10-09T11:31:39;101920.44;;;21.43;100.00
65173;BME280;69059;52.218;5.172;2023-10-09T11:34:17;101915.06;;;21.31;100.00
65173;BME280;69059;52.218;5.172;2023-10-09T11:36:49;101906.53;;;21.59;100.00
65173;BME280;69059;52.218;5.172;2023-10-09T11:39:27;101913.09;;;21.27;100.00
65173;BME280;69059;52.218;5.172;2023-10-09T11:42:18;101913.66;;;21.77;100.00
65173;BME280;69059;52.218;5.172;2023-10-09T11:45:02;101922.13;;;21.86;100.00
65173;BME280;69059;52.218;5.172;2023-10-09T11:47:46;101927.84;;;21.23;100.00
65173;BME280;69059;52.218;5.172;2023-10-09T11:50:39;101929.91;;;21.21;100.00
65173;BME280;69059;52.218;5.172;2023-10-09T11:53:09;101923.66;;;20.90;100.00
65173;BME280;69059;52.218;5.172;2023-10-09T11:56:01;101919.16;;;20.91;100.00
65173;BME280;69059;52.218;5.172;2023-10-09T11:58:28;101904.88;;;21.10;100.00
65173;BME280;69059;52.218;5.172;2023-10-09T12:00:56;101912.63;;;21.12;100.00
65173;BME280;69059;52.218;5.172;2023-10-09T12:03:26;101907.16;;;21.06;100.00
65173;BME280;69059;52.218;5.172;2023-10-09T12:05:57;101900.16;;;20.94;100.00
65173;BME280;69059;52.218;5.172;2023-10-09T12:08:30;101905.69;;;20.74;100.00
65173;BME280;69059;52.218;5.172;2023-10-09T12:10:58;101909.31;;;20.98;100.00
65173;BME280;69059;52.218;5.172;2023-10-09T12:13:36;101905.97;;;20.84;100.00
65173;BME280;69059;52.218;5.172;2023-10-09T12:16:05;101908.34;;;20.92;100.00
65173;BME280;69059;52.218;5.172;2023-10-09T12:18:36;101895.13;;;20.43;100.00
65173;BME280;69059;52.218;5.172;2023-10-09T12:21:06;101913.00;;;20.54;100.00
65173;BME280;69059;52.218;5.172;2023-10-09T12:23:34;101905.69;;;20.74;100.00
65173;BME280;69059;52.218;5.172;2023-10-09T12:26:02;101905.16;;;20.41;100.00
65173;BME280;69059;52.218;5.172;2023-10-09T12:28:30;101906.84;;;20.60;100.00
65173;BME280;69059;52.218;5.172;2023-10-09T12:31:01;101908.34;;;20.24;100.00
65173;BME280;69059;52.218;5.172;2023-10-09T12:33:28;101906.75;;;20.48;100.00
65173;BME280;69059;52.218;5.172;2023-10-09T12:35:57;101908.13;;;20.26;100.00
65173;BME280;69059;52.218;5.172;2023-10-09T12:38:27;101915.09;;;20.20;100.00
65173;BME280;69059;52.218;5.172;2023-10-09T12:41:02;101924.94;;;20.13;100.00
65173;BME280;69059;52.218;5.172;2023-10-09T12:43:35;101920.59;;;20.19;100.00
65173;BME280;69059;52.218;5.172;2023-10-09T12:46:06;101928.13;;;19.90;100.00
65173;BME280;69059;52.218;5.172;2023-10-09T12:48:34;101884.09;;;19.89;100.00
65173;BME280;69059;52.218;5.172;2023-10-09T12:51:04;101915.47;;;20.24;100.00
65173;BME280;69059;52.218;5.172;2023-10-09T12:53:33;101927.59;;;20.13;100.00
65173;BME280;69059;52.218;5.172;2023-10-09T12:56:01;101931.44;;;19.86;100.00
65173;BME280;69059;52.218;5.172;2023-10-09T12:58:29;101921.31;;;19.70;100.00
65173;BME280;69059;52.218;5.172;2023-10-09T13:00:57;101927.56;;;19.82;100.00
65173;BME280;69059;52.218;5.172;2023-10-09T13:03:37;101929.31;;;19.63;100.00
65173;BME280;69059;52.218;5.172;2023-10-09T13:06:05;101928.19;;;19.77;100.00
65173;BME280;69059;52.218;5.172;2023-10-09T13:08:37;101926.69;;;19.94;100.00
65173;BME280;69059;52.218;5.172;2023-10-09T13:11:08;101928.34;;;20.20;100.00
65173;BME280;69059;52.218;5.172;2023-10-09T13:13:38;101928.25;;;20.02;100.00
65173;BME280;69059;52.218;5.172;2023-10-09T13:16:11;101931.41;;;20.17;100.00
65173;BME280;69059;52.218;5.172;2023-10-09T13:18:41;101929.56;;;20.24;100.00
65173;BME280;69059;52.218;5.172;2023-10-09T13:21:17;101930.41;;;19.87;100.00
65173;BME280;69059;52.218;5.172;2023-10-09T13:23:44;101928.81;;;20.11;100.00
65173;BME280;69059;52.218;5.172;2023-10-09T13:26:14;101927.13;;;20.16;100.00
65173;BME280;69059;52.218;5.172;2023-10-09T13:28:48;101922.94;;;20.02;100.00
65173;BME280;69059;52.218;5.172;2023-10-09T13:31:16;101903.19;;;19.66;100.00
65173;BME280;69059;52.218;5.172;2023-10-09T13:33:46;101927.03;;;20.29;100.00
65173;BME280;69059;52.218;5.172;2023-10-09T13:36:14;101924.25;;;19.93;100.00
65173;BME280;69059;52.218;5.172;2023-10-09T13:38:53;101922.00;;;19.90;100.00